x

Little Traverse Bay, Mi (45022) Wave Buoy

9:50pm - Thu 25th May 2017 All times are CDT. -5 hours from GMT.

  • Sig Wave height 0.3ft
  • Swell Direction
  • Wind
    2mph, 4mph gusts
  • Sea Temp 42°f
  • Air Temp 52°f
  • Sea Pressure 1008mb
  • Little Traverse Bay, Mi
  • Little Traverse Bay, Mi

More Historic Weather Station data

Upgrade to MSW Pro to gain access to the past 30 days of data for over 8000 Wavebouys and Weather Stations around the globe.

Join Pro

Comparision Forecast

View Surf forecast
   
Thu 05/25 9:50pm 0.3ft  -  2 4 mph 1008mb 42f 52f
9:40pm 0.3ft  -  4 4 mph 1007.9mb 42f 51f
9:30pm 0.3ft  -  4 4 mph 1007.8mb 42f 52f
9:20pm 0.3ft  -  4 4 mph 1007.5mb 42f 51f
9:10pm 0.3ft  -  4 7 mph 1007.4mb 42f 49f
9:00pm 0.3ft  -  4 7 mph 1007.3mb 42f 49f
8:50pm 0.3ft  -  4 7 mph 1007.2mb 42f 50f
8:40pm 0.7ft  -  4 7 mph 1007.1mb 42f 51f
8:30pm 0.7ft  -  4 7 mph 1007mb 42f 51f
8:20pm 0.7ft  -  7 7 mph 1006.9mb 42f 51f
8:10pm 0.7ft  -  7 7 mph 1006.8mb 42f 51f
8:00pm 0.7ft  -  7 7 mph 1006.6mb 42f 50f
7:50pm 0.7ft  -  7 9 mph 1006.5mb 42f 51f
7:40pm 0.7ft  -  7 9 mph 1006.3mb 42f 51f
7:30pm 0.7ft  -  7 9 mph 1006.2mb 42f 49f
7:20pm 0.7ft  -  7 7 mph 1006.1mb 42f 48f
7:10pm 0.7ft  -  7 9 mph 1006mb 42f 47f
7:00pm 0.7ft  -  9 11 mph 1006mb 42f 49f
6:50pm 0.7ft  -  9 11 mph 1005.8mb 42f 50f
6:40pm 0.7ft  -  9 9 mph 1005.7mb 42f 50f
6:30pm 0.7ft  -  9 13 mph 1005.6mb 42f 50f
6:20pm 0.7ft  -  9 13 mph 1005.6mb 42f 51f
6:10pm 0.7ft  -  9 13 mph 1005.7mb 42f 51f
6:00pm 0.7ft  -  9 18 mph 1005.5mb 42f 51f
5:50pm 0.7ft  -  9 11 mph 1005.5mb 42f 51f
5:40pm 1ft  -  9 11 mph 1005.5mb 42f 51f
5:30pm 1ft 2s 7 11 mph 1005.5mb 42f 51f
5:20pm 1ft 2s 7 9 mph 1005.5mb 42f 51f
5:10pm 1ft 2s 9 11 mph 1005.4mb 42f 50f
5:00pm 1ft 2s 9 11 mph 1005.4mb 42f 50f
4:50pm 1ft 2s 7 9 mph 1005.4mb 42f 50f
4:40pm 1ft 2s 7 9 mph 1005.3mb 42f 50f
4:30pm 1ft 2s 7 9 mph 1005.3mb 42f 51f
4:20pm 1ft  -  7 9 mph 1005.2mb 42f 51f
4:10pm 1ft 2s 9 13 mph 1005.2mb 42f 51f
4:00pm 1.3ft 2s 9 13 mph 1005.2mb 42f 51f
3:50pm 1ft 2s 11 13 mph 1005.1mb 42f 50f
3:40pm 1.3ft 2s 11 16 mph 1005mb 42f 51f
3:30pm 1.3ft 2s 13 16 mph 1005mb 42f 51f
3:20pm 1ft 2s 13 18 mph 1005mb 42f 52f
3:10pm 1ft 2s 13 18 mph 1004.9mb 42f 51f
3:00pm 1ft  -  13 18 mph 1005mb 42f 52f
2:50pm 1ft 2s 13 20 mph 1004.9mb 42f 52f
2:40pm 1ft  -  11 13 mph 1004.9mb 42f 51f
2:30pm 1ft  -  9 13 mph 1005mb 42f 50f
2:20pm 1ft  -  9 11 mph 1005.1mb 42f 50f
2:10pm 1ft  -  9 11 mph 1005.2mb 42f 50f
2:00pm 1ft  -  11 13 mph 1005.2mb 42f 50f
1:50pm 1ft  -  9 16 mph 1005.1mb 42f 51f
1:40pm 1ft  -  11 16 mph 1005.1mb 42f 52f
1:30pm 1ft  -  11 18 mph 1005.1mb 42f 51f
1:20pm 1ft 2s 11 16 mph 1005.1mb 42f 53f
1:10pm 1ft 2s 13 20 mph 1005.1mb 42f 53f
1:00pm 1ft 2s 11 16 mph 1005.1mb 42f 52f
12:50pm 1ft  -  11 13 mph 1005.1mb 42f 52f
12:40pm 1ft  -  11 13 mph 1005.1mb 42f 52f
12:30pm 1ft 2s 11 13 mph 1005.2mb 42f 52f
12:20pm 1ft  -  9 13 mph 1005.2mb 42f 52f
12:10pm 1ft  -  11 16 mph 1005.3mb 42f 52f
12:00pm 1ft  -  9 13 mph 1005.2mb 42f 52f
11:50am 1ft 2s 11 16 mph 1005.2mb 42f 52f
11:40am 1ft 2s 13 18 mph 1005.2mb 42f 53f
11:30am 1ft 2s 13 18 mph 1005.2mb 42f 52f
11:20am 1ft 2s 11 18 mph 1005.2mb 42f 52f
11:10am 1ft 2s 11 16 mph 1005.2mb 42f 51f
11:00am 1ft 2s 7 9 mph 1005.2mb 42f 50f
10:50am 1ft 2s 9 11 mph 1005.2mb 42f 51f
10:40am 1ft 2s 7 11 mph 1005.2mb 42f 51f
10:30am 1ft 2s 9 13 mph 1005.3mb 42f 51f
10:20am 1ft  -  11 20 mph 1005.3mb 42f 51f
10:10am 1ft  -  9 13 mph 1005.3mb 42f 52f
10:00am 0.7ft  -  7 11 mph 1005.4mb 42f 51f
9:50am 0.7ft  -  9 13 mph 1005.4mb 42f 51f
9:40am 0.7ft  -  7 11 mph 1005.4mb 42f 51f
9:30am 0.7ft  -  4 9 mph 1005.4mb 42f 50f
9:20am 0.7ft  -  7 9 mph 1005.5mb 42f 50f
9:10am 0.7ft  -  4 9 mph 1005.6mb 42f 51f
9:00am 0.7ft  -   -  4 mph 1005.8mb 42f 53f
8:50am 0.7ft  -   -  2 mph 1005.6mb 42f 52f
8:40am 0.7ft  -   -  2 mph 1005.6mb 42f 52f
8:30am 0.7ft  -  2 4 mph 1005.6mb 42f 51f
8:20am 0.7ft  -  2 4 mph 1005.7mb 42f 50f
8:10am 0.7ft  -  2 2 mph 1005.6mb 42f 49f
8:00am 0.7ft  -   -  2 mph 1005.7mb 42f 49f
7:50am 0.7ft  -  2 4 mph 1005.8mb 42f 49f
7:40am 0.7ft  -   -  2 mph 1005.8mb 42f 48f
7:30am 0.7ft  -   -  2 mph 1005.8mb 42f 48f
7:20am 1ft 3s 4 7 mph 1005.8mb 42f 48f
7:10am 1ft 3s 4 7 mph 1005.8mb 42f 48f
7:00am 1ft 3s 4 7 mph 1005.8mb 42f 48f
6:50am 1ft  -  7 9 mph 1005.7mb 42f 49f
6:40am 1ft 2s 7 9 mph 1005.6mb 42f 49f
6:30am 1ft 2s 9 11 mph 1005.5mb 42f 50f
6:20am 1ft 2s 9 13 mph 1005.4mb 42f 50f
6:10am 1ft  -  11 13 mph 1005.3mb 42f 50f
6:00am 1ft 2s 9 13 mph 1005.3mb 42f 50f
5:50am 1ft 2s 9 11 mph 1005.3mb 42f 49f
5:40am 1ft 2s 9 11 mph 1005.3mb 42f 50f
5:30am 1ft 2s 9 11 mph 1005.3mb 42f 50f
5:20am 1ft  -  9 13 mph 1005.3mb 42f 50f
5:10am 1ft 2s 4 13 mph 1005.3mb 42f 47f
5:00am 1ft  -  4 7 mph 1005.3mb 42f 48f
4:50am 1ft 2s 4 7 mph 1005.2mb 42f 47f
4:40am 1ft 2s 7 7 mph 1005.2mb 42f 47f
4:30am 1ft 2s 4 7 mph 1005.1mb 42f 46f
4:20am 1ft 2s 4 7 mph 1005mb 42f 46f
4:10am 1ft 2s 7 9 mph 1005.1mb 42f 47f
4:00am 1ft 2s 7 9 mph 1005mb 42f 47f
3:50am 1ft 2s 9 11 mph 1005mb 42f 48f
3:40am 1ft 2s 9 13 mph 1004.9mb 42f 49f
3:30am 1ft 2s 11 18 mph 1005mb 42f 48f
3:20am 1ft 2s 9 13 mph 1005mb 42f 48f
3:10am 1ft  -  9 11 mph 1005.1mb 42f 47f
3:00am 1ft  -  9 9 mph 1005.1mb 42f 47f
2:50am 1ft  -  9 13 mph 1005.2mb 42f 48f
2:40am 0.7ft  -  11 13 mph 1005.2mb 42f 48f
2:30am 0.7ft  -  4 11 mph 1005.4mb 42f 48f
2:20am 0.7ft  -  4 7 mph 1005.4mb 42f 49f
2:10am 0.7ft  -  2 4 mph 1005.4mb 42f 50f
2:00am 0.7ft  -  2 2 mph 1005.5mb 42f 49f
1:50am 0.7ft  -  2 2 mph 1005.7mb 42f 47f
1:40am 0.7ft  -  4 4 mph 1005.7mb 42f 45f
1:30am 0.7ft  -  2 4 mph 1005.8mb 42f 47f
1:20am 0.7ft  -  4 7 mph 1005.8mb 42f 47f
1:10am 1ft  -  7 9 mph 1005.8mb 42f 48f
1:00am 0.7ft  -  9 11 mph 1005.8mb 42f 49f
12:50am 1ft 2s 9 11 mph 1005.8mb 42f 49f
12:40am 0.7ft  -  9 9 mph 1005.9mb 42f 48f
12:30am 0.7ft  -  4 7 mph 1006mb 42f 47f
12:20am 0.7ft  -  4 7 mph 1005.9mb 42f 49f
12:10am 0.7ft  -  2 4 mph 1006mb 42f 48f
12:00am 0.7ft  -   -  2 mph 1006.2mb 42f 47f
Wed 05/24 11:50pm 0.7ft  -  2 2 mph 1006.3mb 42f 47f
11:40pm 0.7ft  -  2 4 mph 1006.2mb 42f 48f
11:30pm 0.7ft  -  2 4 mph 1006.2mb 42f 49f
11:20pm 0.7ft  -  2 4 mph 1006.3mb 42f 50f
11:10pm 0.3ft  -  2 2 mph 1006.3mb 42f 49f
11:00pm 0.7ft  -   -  2 mph 1006.4mb 42f 49f
10:50pm 0.3ft  -   -  2 mph 1006.4mb 42f 50f
10:40pm 0.3ft  -  2 2 mph 1006.5mb 42f 50f
10:30pm 0.3ft  -  2 2 mph 1006.5mb 42f 50f
10:20pm 0.3ft  -   -  2 mph 1006.6mb 42f 50f
10:10pm 0.3ft  -   -  4 mph 1006.7mb 42f 51f
10:00pm 0.3ft  -   -  2 mph 1006.7mb 42f 50f
9:50pm 0.3ft  -  2 4 mph 1006.7mb 42f 50f
9:40pm 0.3ft  -  2 4 mph 1006.8mb 42f 48f
9:30pm 0.3ft  -  2 4 mph 1006.7mb 42f 47f
9:20pm 0.3ft  -  2 4 mph 1006.7mb 42f 49f
9:10pm 0.3ft  -  2 4 mph 1006.7mb 42f 49f
9:00pm 0.3ft  -  2 2 mph 1006.7mb 42f 49f
8:50pm 0.3ft  -   -  2 mph 1006.7mb 42f 50f
8:40pm 0.3ft  -   -  0 mph 1006.7mb 42f 50f
8:30pm 0.3ft  -   -  2 mph 1006.8mb 42f 51f
8:20pm 0.7ft  -   -  2 mph 1006.9mb 42f 51f
8:10pm 0.7ft  -   -  2 mph 1006.9mb 42f 51f
8:00pm 0.7ft  -   -  2 mph 1006.9mb 42f 51f
7:50pm 0.7ft  -   -  2 mph 1006.9mb 42f 50f
7:40pm 0.7ft  -   -  2 mph 1007mb 42f 49f
7:30pm 0.7ft  -  2 2 mph 1007mb 42f 49f
7:20pm 0.7ft  -  2 4 mph 1006.9mb 42f 49f
7:10pm 0.7ft  -  7 7 mph 1006.9mb 42f 50f
7:00pm 0.7ft  -  7 9 mph 1006.9mb 42f 49f
6:50pm 0.7ft  -  7 9 mph 1006.7mb 42f 49f
6:40pm 0.7ft  -  7 9 mph 1006.8mb 42f 49f
6:30pm 0.7ft  -  9 11 mph 1006.7mb 42f 49f
6:20pm 0.7ft  -  9 11 mph 1006.7mb 42f 49f
6:10pm 0.7ft  -  7 9 mph 1006.6mb 42f 49f
6:00pm 0.7ft  -  7 9 mph 1006.5mb 42f 49f
5:50pm 0.7ft  -  7 7 mph 1006.5mb 42f 48f
5:40pm 0.7ft  -  7 9 mph 1006.5mb 42f 48f
5:30pm 0.7ft  -  9 11 mph 1006.5mb 42f 48f
5:20pm 0.7ft  -  7 9 mph 1006.5mb 42f 48f
5:10pm 0.7ft  -  4 7 mph 1006.5mb 42f 47f
5:00pm 0.7ft  -  7 9 mph 1006.4mb 42f 49f
4:50pm 0.7ft  -  7 9 mph 1006.4mb 42f 48f
4:40pm 0.7ft  -  2 4 mph 1006.5mb 42f 48f
4:30pm 0.7ft  -  4 7 mph 1006.5mb 42f 48f
4:20pm 1ft 2s 4 7 mph 1006.3mb 42f 48f
4:10pm 1ft 2s 7 9 mph 1006.2mb 42f 48f
4:00pm 1ft 2s 9 11 mph 1006.3mb 42f 48f
3:50pm 1ft 2s 11 13 mph 1006.3mb 42f 48f
3:40pm 1.3ft 2s 11 13 mph 1006.4mb 42f 48f
3:30pm 1.3ft 2s 11 13 mph 1006.5mb 42f 49f
3:20pm 1ft 2s 11 13 mph 1006.7mb 42f 49f
3:10pm 1.3ft 2s 13 16 mph 1006.8mb 42f 49f
3:00pm 1.3ft 2s 13 18 mph 1006.8mb 42f 49f
2:50pm 1.3ft 2s 13 18 mph 1006.9mb 42f 49f
2:40pm 1ft 2s 13 16 mph 1006.8mb 42f 49f
2:30pm 1ft 2s 13 16 mph 1006.8mb 42f 49f
2:20pm 1ft 2s 13 16 mph 1006.8mb 42f 48f
2:10pm 1ft 2s 13 16 mph 1006.8mb 42f 49f
2:00pm 1ft  -  11 16 mph 1006.9mb 42f 48f
1:50pm 1ft 2s 11 13 mph 1007mb 42f 48f
1:40pm 1ft  -  11 13 mph 1006.9mb 42f 48f
1:30pm 1ft  -  11 13 mph 1006.7mb 42f 48f
1:20pm 0.7ft  -  11 13 mph 1006.8mb 42f 48f
1:10pm 0.7ft  -  11 13 mph 1006.8mb 42f 48f
1:00pm 1ft 2s 11 13 mph 1006.9mb 42f 48f
12:50pm 1ft 2s 9 11 mph 1007.1mb 42f 47f
12:40pm 1ft  -  11 13 mph 1007.1mb 42f 47f
12:30pm 1ft 2s 11 13 mph 1007mb 42f 47f
12:20pm 1ft 2s 11 13 mph 1007mb 42f 48f
12:10pm 1ft 2s 11 13 mph 1007mb 42f 48f
12:00pm 1ft 2s 13 16 mph 1006.9mb 42f 48f
11:50am 1ft 2s 11 13 mph 1007mb 42f 47f
11:40am 1ft 2s 11 13 mph 1007.2mb 42f 47f
11:30am 1ft 2s 11 13 mph 1007.2mb 42f 47f
11:20am 1ft 2s 11 13 mph 1007.3mb 42f 47f
11:10am 1ft 2s 13 16 mph 1007.4mb 42f 47f
11:00am 1ft 2s 13 16 mph 1007.7mb 42f 46f
10:50am 1ft 2s 13 16 mph 1007.9mb 42f 46f
10:40am 1ft  -  11 13 mph 1008mb 42f 46f
10:30am 1ft  -  11 16 mph 1007.9mb 42f 46f
10:20am 1ft 2s 11 13 mph 1007.9mb 42f 46f
10:10am 1ft 2s 11 13 mph 1007.8mb 42f 46f
10:00am 1ft 2s 11 13 mph 1007.9mb 42f 46f
9:50am 1ft 2s 11 13 mph 1007.8mb 42f 46f
9:40am 0.7ft  -  9 11 mph 1007.9mb 42f 46f
9:30am 1ft  -  9 11 mph 1007.8mb 42f 46f
9:20am 1ft 2s 9 11 mph 1007.9mb 42f 46f
9:10am 1ft  -  11 13 mph 1008mb 42f 46f
9:00am 1ft  -  11 13 mph 1008mb 42f 46f
8:50am 1ft  -  11 13 mph 1008mb 42f 46f
8:40am 1ft 2s 11 13 mph 1007.9mb 42f 46f
8:30am 1ft 2s 11 13 mph 1007.9mb 42f 46f
8:20am 1ft 2s 11 13 mph 1008mb 42f 46f
8:10am 1ft  -  11 13 mph 1007.9mb 42f 46f
8:00am 1ft  -  11 13 mph 1007.8mb 42f 46f
7:50am 1ft  -  11 13 mph 1007.8mb 42f 46f
7:40am 1ft  -  11 13 mph 1007.8mb 42f 45f
7:30am 1ft  -  11 13 mph 1007.7mb 42f 46f
7:20am 1ft  -  11 13 mph 1007.7mb 42f 45f
7:10am 0.7ft  -  9 11 mph 1007.8mb 42f 45f
7:00am 0.7ft  -  11 11 mph 1007.7mb 42f 45f
6:50am 0.7ft  -  11 11 mph 1007.7mb 42f 45f
6:40am 0.3ft  -  9 11 mph 1007.7mb 42f 45f
6:30am 0.3ft  -  7 11 mph 1007.7mb 42f 44f
6:20am 0.3ft  -  7 9 mph 1007.7mb 42f 45f
6:10am 0.3ft  -  4 7 mph 1007.6mb 42f 45f
6:00am 0.3ft  -  4 7 mph 1007.6mb 42f 44f
5:50am 0.7ft  -  4 7 mph 1007.5mb 42f 44f
5:40am 0.7ft  -  7 7 mph 1007.6mb 42f 45f
5:30am 0.7ft  -  7 9 mph 1007.5mb 42f 44f
5:20am 0.7ft  -  4 7 mph 1007.6mb 42f 44f
5:10am 0.7ft  -  4 4 mph 1007.7mb 42f 44f
5:00am 0.7ft  -  4 7 mph 1007.7mb 42f 44f
4:50am 0.3ft  -  7 7 mph 1007.7mb 42f 45f
4:40am 0.3ft  -  4 4 mph 1007.8mb 42f 45f
4:30am 0.3ft  -  4 4 mph 1007.7mb 42f 45f
4:20am 0.3ft  -  4 7 mph 1007.6mb 42f 46f
4:10am 0.3ft  -  4 7 mph 1007.7mb 42f 46f
4:00am 0.3ft  -  4 7 mph 1007.7mb 42f 46f
3:50am 0.3ft  -  4 4 mph 1007.8mb 42f 46f
3:40am 0.3ft  -  4 4 mph 1007.8mb 42f 46f
3:30am 0.3ft  -  2 2 mph 1008mb 42f 47f
3:20am 0.3ft  -  2 2 mph 1008mb 42f 46f
3:10am 0.3ft  -  2 4 mph 1007.9mb 42f 47f
3:00am 0.3ft  -  4 7 mph 1008mb 42f 46f
2:50am 0.3ft  -  4 7 mph 1008.1mb 42f 46f
2:40am 0.3ft  -  7 9 mph 1008.2mb 42f 46f
2:30am 0.3ft  -  7 9 mph 1008.2mb 42f 46f
2:20am 0.3ft  -  4 7 mph 1008.2mb 42f 46f
2:10am 0.3ft  -  4 4 mph 1008.2mb 42f 46f
2:00am 0.3ft  -  4 4 mph 1008.2mb 42f 46f
1:50am 0.3ft  -  2 2 mph 1008.1mb 42f 47f
1:40am 0.3ft  -  2 4 mph 1008.2mb 42f 48f
1:30am 0.7ft  -  2 4 mph 1008.2mb 42f 48f
1:20am 0.3ft  -  2 2 mph 1008.4mb 42f 48f
1:10am 0.3ft  -  2 2 mph 1008.5mb 42f 47f
1:00am 0.3ft  -  2 4 mph 1008.5mb 42f 47f
12:50am 0.3ft  -  2 4 mph 1008.7mb 42f 47f
12:40am 0.3ft  -  4 4 mph 1008.7mb 42f 48f
12:30am 0.3ft  -  4 7 mph 1008.7mb 42f 47f
12:20am 0.3ft  -   -  2 mph 1008.8mb 42f 46f
12:10am 0.3ft  -  2 2 mph 1008.9mb 42f 46f
12:00am 0.3ft  -  2 2 mph 1008.9mb 42f 47f
Tue 05/23 11:50pm 0.3ft  -   -  2 mph 1008.9mb 42f 46f
11:40pm 0.3ft  -  2 2 mph 1008.9mb 42f 46f
11:30pm 0.3ft  -  2 4 mph 1009mb 42f 47f
11:20pm 0.3ft  -  2 4 mph 1009mb 42f 47f
11:10pm 0.3ft  -  2 2 mph 1009.1mb 42f 46f
11:00pm 0.3ft  -  2 2 mph 1009.2mb 42f 46f
10:50pm 0.3ft  -  2 4 mph 1009.3mb 42f 48f
10:40pm 0.3ft  -  2 2 mph 1009.4mb 42f 49f
10:30pm 0.3ft  -  2 2 mph 1009.4mb 42f 49f
10:20pm 0.3ft  -  2 2 mph 1009.4mb 42f 49f
10:10pm 0.3ft  -  2 4 mph 1009.4mb 42f 49f
10:00pm 0.3ft  -  4 7 mph 1009.3mb 42f 49f
9:50pm 0.3ft  -  4 7 mph 1009.3mb 42f 49f
9:40pm 0.3ft  -  7 7 mph 1009.4mb 42f 49f
9:30pm 0.3ft  -  7 7 mph 1009.4mb 42f 47f
9:20pm 0.7ft  -  7 7 mph 1009.4mb 42f 48f
9:10pm 0.3ft  -  7 9 mph 1009.3mb 42f 48f
9:00pm 0.7ft  -  7 9 mph 1009.3mb 42f 48f
8:50pm 0.7ft  -  7 9 mph 1009.2mb 42f 49f
8:40pm 0.7ft  -  7 9 mph 1009.3mb 42f 49f
8:30pm 0.7ft  -  9 9 mph 1009.4mb 42f 49f
8:20pm 0.7ft  -  9 9 mph 1009.4mb 42f 49f
8:10pm 0.7ft  -  9 11 mph 1009.3mb 42f 50f
8:00pm 0.7ft  -  11 11 mph 1009.1mb 42f 50f
7:50pm 0.7ft  -  11 11 mph 1009mb 42f 50f
7:40pm 0.7ft  -  9 11 mph 1009mb 42f 49f
7:30pm 0.7ft  -  9 11 mph 1009mb 42f 49f
7:20pm 0.7ft  -  7 9 mph 1009mb 42f 49f
7:10pm 0.7ft  -  7 9 mph 1009mb 42f 50f
7:00pm 0.7ft  -  7 9 mph 1009.1mb 42f 51f
6:50pm 0.7ft  -  4 7 mph 1009.1mb 42f 50f
6:40pm 0.7ft  -   -  2 mph 1009.1mb 42f 47f
6:30pm 0.7ft  -  2 4 mph 1009mb 42f 47f
6:20pm 0.7ft  -  4 7 mph 1009mb 42f 46f
6:10pm 0.7ft  -  4 7 mph 1009.2mb 42f 46f
6:00pm 0.7ft  -  4 7 mph 1009mb 42f 48f
5:50pm 0.7ft  -  2 4 mph 1009.1mb 42f 55f
5:40pm 0.7ft  -   -  0 mph 1009.1mb 42f 55f
5:30pm 0.7ft  -   -  2 mph 1009mb 42f 53f
5:20pm 0.7ft  -   -  2 mph 1008.9mb 42f 51f
5:10pm 0.7ft  -  4 4 mph 1008.9mb 42f 49f
5:00pm 0.7ft  -  4 4 mph 1008.9mb 42f 48f
4:50pm 0.7ft  -  4 7 mph 1009.1mb 42f 47f
4:40pm 1ft 3s 2 4 mph 1009.1mb 42f 47f
4:30pm 0.7ft  -  4 4 mph 1009.2mb 42f 48f
4:20pm 0.7ft  -  2 4 mph 1009.1mb 42f 47f
4:10pm 0.7ft  -  4 9 mph 1009.1mb 42f 47f
4:00pm 1ft 2s 4 4 mph 1009mb 42f 48f
3:50pm 1ft 3s 4 4 mph 1009mb 42f 46f
3:40pm 0.7ft  -  4 7 mph 1009.1mb 42f 47f
3:30pm 1ft 2s 4 7 mph 1009.2mb 42f 47f
3:20pm 1ft  -  7 9 mph 1009.2mb 42f 47f
3:10pm 1ft 2s 7 9 mph 1009.4mb 42f 47f
3:00pm 1ft 3s 7 9 mph 1009.4mb 42f 48f
2:50pm 1ft 2s 9 11 mph 1009.6mb 42f 49f
2:40pm 0.7ft  -  7 9 mph 1009.8mb 42f 48f
2:30pm 0.7ft  -  9 9 mph 1010mb 42f 48f
2:20pm 0.7ft  -  7 9 mph 1010.1mb 42f 48f
2:10pm 0.7ft  -  9 11 mph 1010.1mb 42f 48f
2:00pm 0.7ft  -  9 11 mph 1010.2mb 42f 47f
1:50pm 0.7ft  -  9 11 mph 1010.3mb 42f 47f
1:40pm 0.7ft  -  7 9 mph 1010.3mb 42f 46f
1:30pm 0.7ft  -  2 4 mph 1010.3mb 42f 45f
1:20pm 0.7ft  -  4 7 mph 1010.4mb 42f 45f
1:10pm 0.7ft  -  4 7 mph 1010.5mb 42f 45f
1:00pm 0.7ft  -  7 9 mph 1010.6mb 42f 45f
12:50pm 0.7ft  -  9 11 mph 1010.6mb 42f 44f
12:40pm 0.7ft  -  9 11 mph 1010.7mb 42f 43f
12:30pm 0.7ft  -  7 9 mph 1010.9mb 42f 43f
12:20pm 0.7ft  -  7 7 mph 1011.1mb 42f 43f
12:10pm 0.7ft  -  2 4 mph 1011.3mb 42f 42f
12:00pm 0.7ft  -  4 7 mph 1011.2mb 42f 42f
11:50am 0.7ft  -  7 9 mph 1011.4mb 42f 42f
11:40am 0.7ft  -  7 9 mph 1011.5mb 42f 42f
11:30am 0.7ft  -  7 9 mph 1011.6mb 42f 42f
11:20am 0.7ft  -  7 9 mph 1011.7mb 42f 42f
11:10am 0.3ft  -  7 9 mph 1011.6mb 42f 42f
11:00am 0.3ft  -  4 7 mph 1011.7mb 42f 42f
10:50am 0.3ft  -  4 7 mph 1011.6mb 42f 42f
10:40am 0.3ft  -  4 7 mph 1011.6mb 42f 43f
10:30am 0.3ft  -  4 7 mph 1011.7mb 42f 43f
10:20am 0.3ft  -  4 7 mph 1011.7mb 42f 43f
10:10am 0.3ft  -  4 7 mph 1011.7mb 42f 43f
10:00am 0.3ft  -  4 7 mph 1011.7mb 42f 43f
9:50am 0.3ft  -  7 7 mph 1011.7mb 41f 43f
9:40am 0.3ft  -  4 4 mph 1011.7mb 41f 43f
9:30am 0.3ft  -  2 4 mph 1011.7mb 41f 44f
9:20am 0.3ft  -   -  2 mph 1011.8mb 41f 46f
9:10am 0.3ft  -   -  0 mph 1011.8mb 41f 46f
9:00am 0.3ft  -   -  2 mph 1011.9mb 41f 45f
8:50am 0.3ft  -   -  0 mph 1012mb 41f 44f
8:40am 0.3ft  -  2 2 mph 1012.2mb 41f 43f
8:30am 0.3ft  -  2 4 mph 1012.1mb 41f 43f
8:20am 0.3ft  -  4 4 mph 1012.1mb 41f 44f
8:10am 0.3ft  -  4 4 mph 1012.3mb 41f 43f
8:00am 0.3ft  -  2 4 mph 1012.4mb 41f 43f
7:50am 0.3ft  -  4 7 mph 1012.4mb 41f 42f
7:40am 0.3ft  -  4 7 mph 1012.3mb 41f 42f
7:30am 0.3ft  -  4 4 mph 1012.1mb 41f 42f
7:20am 0.3ft  -  4 4 mph 1012mb 41f 42f
7:10am 0.3ft  -  4 4 mph 1012mb 41f 42f
7:00am 0.3ft  -  2 4 mph 1012mb 41f 42f
6:50am 0.3ft  -  2 2 mph 1011.9mb 41f 42f
6:40am 0.3ft  -  2 2 mph 1011.9mb 41f 42f
6:30am 0.3ft  -  4 4 mph 1011.9mb 41f 41f
6:20am 0.3ft  -  2 4 mph 1011.7mb 41f 42f
6:10am 0.3ft  -  4 4 mph 1011.7mb 41f 41f
6:00am 0.3ft  -  4 7 mph 1011.6mb 41f 41f
5:50am 0.3ft  -  4 7 mph 1011.5mb 41f 41f
5:40am 0.7ft  -  4 4 mph 1011.4mb 41f 41f
5:30am 0.7ft  -  4 4 mph 1011.2mb 41f 41f
5:20am 0.7ft  -  2 2 mph 1011.2mb 41f 42f
5:10am 0.7ft  -  2 2 mph 1011.4mb 41f 42f
5:00am 0.7ft  -  2 4 mph 1011.6mb 41f 41f
4:50am 0.7ft  -  4 7 mph 1011.4mb 41f 41f
4:40am 0.7ft  -  4 7 mph 1011.4mb 41f 41f
4:30am 0.7ft  -  4 7 mph 1011.4mb 41f 41f
4:20am 0.7ft  -  4 7 mph 1011.5mb 41f 41f
4:10am 0.7ft  -  4 7 mph 1011.5mb 41f 42f
4:00am 0.7ft  -  2 7 mph 1011.4mb 41f 42f
3:50am 0.7ft  -  2 4 mph 1011.4mb 41f 42f
3:40am 0.7ft  -  2 2 mph 1011.4mb 41f 42f
3:30am 0.7ft  -  4 7 mph 1011.6mb 41f 42f
3:20am 0.7ft  -  4 7 mph 1011.6mb 41f 42f
3:10am 0.7ft  -  4 7 mph 1011.7mb 41f 42f
3:00am 0.7ft  -  4 4 mph 1011.8mb 41f 42f
2:50am 0.7ft  -  4 4 mph 1011.9mb 41f 42f
2:40am 0.7ft  -  2 4 mph 1012mb 41f 41f
2:30am 0.7ft  -  2 4 mph 1012.1mb 41f 42f
2:20am 1ft 4s 4 4 mph 1012.1mb 41f 42f
2:10am 1ft 4s 2 4 mph 1012.2mb 41f 42f
2:00am 1ft 4s 2 4 mph 1012.2mb 41f 42f
1:50am 1ft 3s 4 4 mph 1012.2mb 41f 42f
1:40am 1ft 4s 4 4 mph 1012.2mb 41f 42f
1:30am 1ft 4s 4 4 mph 1012.3mb 41f 42f
1:20am 1ft 4s 7 7 mph 1012.4mb 41f 42f
1:10am 1ft 3s 4 7 mph 1012.4mb 41f 42f
1:00am 1ft 3s 7 7 mph 1012.3mb 41f 42f
12:50am 1ft 3s 7 7 mph 1012.3mb 41f 42f
12:40am 1ft 3s 7 9 mph 1012.4mb 40f 43f
12:30am 1ft 4s 4 7 mph 1012.4mb 41f 44f
12:20am 1ft 3s 4 4 mph 1012.6mb 41f 44f
12:10am 1ft 3s 4 7 mph 1012.5mb 41f 43f
12:00am 1ft 3s 4 7 mph 1012.5mb 41f 43f
Mon 05/22 11:50pm 1ft 4s 7 7 mph 1012.5mb 41f 43f
11:40pm 1ft 4s 4 7 mph 1012.5mb 40f 42f
11:30pm 1ft 4s 4 7 mph 1012.4mb 40f 42f
11:20pm 1ft 4s 2 4 mph 1012.4mb 40f 43f
11:10pm 1ft 3s 2 4 mph 1012.4mb 41f 44f
11:00pm 1ft 4s 2 4 mph 1012.5mb 41f 44f
10:50pm 1.3ft 3s 2 4 mph 1012.5mb 41f 44f
10:40pm 1ft 3s 7 7 mph 1012.5mb 40f 44f
10:30pm 1ft 4s 7 7 mph 1012.4mb 40f 44f
10:20pm 1.3ft 4s 7 9 mph 1012.4mb 40f 44f
10:10pm 1.3ft 4s 7 9 mph 1012.6mb 40f 45f
10:00pm 1.3ft 4s 2 4 mph 1012.7mb 40f 45f
9:50pm 1.3ft 3s 2 2 mph 1012.5mb 40f 46f
9:40pm 1.3ft 4s 2 4 mph 1012.6mb 40f 46f
9:30pm 1.3ft 5s 4 4 mph 1012.5mb 40f 44f
9:20pm 1.6ft 4s 4 7 mph 1012.4mb 40f 44f
9:10pm 1.6ft 3s 4 7 mph 1012.4mb 40f 44f
9:00pm 1.6ft 3s 4 7 mph 1012.1mb 40f 44f
8:50pm 2ft 4s 4 11 mph 1012.4mb 40f 45f
8:40pm 2ft 4s 11 20 mph 1012.7mb 40f 46f
8:30pm 2ft 5s 16 25 mph 1012.8mb 41f 45f
8:20pm 1.6ft 4s 18 27 mph 1012mb 41f 45f
8:10pm 1ft 5s 18 29 mph 1011.8mb 41f 47f
8:00pm 1ft 4s 7 9 mph 1010.5mb 41f 45f
7:50pm 1ft 4s 7 9 mph 1010.5mb 41f 45f
7:40pm 1.3ft 4s 7 9 mph 1010.6mb 41f 47f
7:30pm 1.3ft 4s 7 9 mph 1010.7mb 40f 48f
7:20pm 1.3ft 4s 7 9 mph 1010.9mb 40f 47f
7:10pm 1.3ft 4s 7 9 mph 1011.1mb 40f 47f
7:00pm 1.3ft 4s 7 7 mph 1011.2mb 41f 46f
6:50pm 1.3ft 4s 4 7 mph 1011.1mb 41f 46f
6:40pm 1.6ft 4s 4 7 mph 1011.2mb 41f 46f
6:30pm 1.6ft 4s 2 4 mph 1011.4mb 41f 47f
6:20pm 1.6ft 4s 2 4 mph 1011.4mb 41f 47f
6:10pm 1.6ft 4s 4 7 mph 1011.5mb 41f 48f
6:00pm 1.6ft 4s 7 9 mph 1011.6mb 41f 48f
5:50pm 2ft 4s 7 11 mph 1011.7mb 41f 50f
5:40pm 2ft 5s 9 11 mph 1011.7mb 41f 48f
5:30pm 2ft 4s 9 13 mph 1011.7mb 41f 49f
5:20pm 2ft 4s 11 16 mph 1011.8mb 41f 49f
5:10pm 2ft 4s 11 16 mph 1011.9mb 41f 48f
5:00pm 2.5ft 4s 11 13 mph 1011.9mb 41f 47f
4:50pm 2.5ft 5s 11 13 mph 1011.9mb 41f 47f
4:40pm 2.5ft 5s 11 16 mph 1012mb 41f 47f
4:30pm 2.5ft 5s 11 16 mph 1012mb 41f 47f
4:20pm 2.5ft 5s 13 16 mph 1012.1mb 41f 47f
4:10pm 3ft 5s 16 20 mph 1012.2mb 41f 47f
4:00pm 3ft 4s 16 18 mph 1012.2mb 41f 48f
3:50pm 3ft 4s 16 18 mph 1012.3mb 41f 47f
3:40pm 3ft 5s 13 18 mph 1012.3mb 41f 47f
3:30pm 3ft 4s 16 18 mph 1012.4mb 41f 47f
3:20pm 3ft 5s 16 20 mph 1012.4mb 41f 47f
3:10pm 3ft 4s 16 22 mph 1012.4mb 41f 46f
3:00pm 3.5ft 4s 16 22 mph 1012.4mb 41f 46f
2:50pm 3ft 5s 16 22 mph 1012.5mb 41f 47f
2:40pm 3ft 4s 16 20 mph 1012.4mb 41f 46f
2:30pm 3ft 5s 16 20 mph 1012.5mb 41f 46f
2:20pm 3ft 4s 16 20 mph 1012.4mb 41f 46f
2:10pm 3.5ft 5s 18 22 mph 1012.3mb 41f 46f
2:00pm 3ft 5s 16 20 mph 1012.3mb 41f 46f
1:50pm 3ft 4s 18 22 mph 1012.3mb 41f 46f
1:40pm 3.5ft 5s 16 22 mph 1012.3mb 41f 46f
1:30pm 3.5ft 5s 18 22 mph 1012.3mb 41f 45f
1:20pm 3.5ft 4s 18 22 mph 1012.3mb 41f 45f
1:10pm 3.5ft 4s 18 27 mph 1012.2mb 41f 46f
1:00pm 3.5ft 4s 18 25 mph 1012.1mb 41f 46f
12:50pm 3.5ft 4s 18 25 mph 1012mb 41f 46f
12:40pm 3.5ft 4s 18 27 mph 1012mb 41f 46f
12:30pm 3.5ft 4s 18 27 mph 1012mb 40f 46f
12:20pm 3.5ft 5s 18 25 mph 1012mb 41f 46f
12:10pm 3.5ft 5s 20 27 mph 1012.1mb 40f 46f
12:00pm 3.5ft 5s 18 25 mph 1012.1mb 40f 46f
11:50am 3.5ft 5s 20 25 mph 1012mb 40f 46f
11:40am 3ft 4s 18 25 mph 1012mb 40f 45f
11:30am 3ft 5s 16 20 mph 1012mb 40f 45f
11:20am 3.5ft 4s 18 25 mph 1011.9mb 40f 46f
11:10am 3.5ft 5s 18 22 mph 1011.8mb 40f 45f
11:00am 3.5ft 4s 18 22 mph 1011.7mb 40f 45f
10:50am 3ft 4s 18 22 mph 1011.6mb 40f 45f
10:40am 3.5ft 4s 18 25 mph 1011.6mb 40f 45f
10:30am 3.5ft 5s 18 27 mph 1011.6mb 40f 45f
10:20am 3ft 4s 18 27 mph 1011.5mb 40f 45f
10:10am 3ft 5s 18 25 mph 1011.5mb 40f 44f
10:00am 3ft 5s 18 27 mph 1011.5mb 40f 44f
9:50am 3ft 4s 18 25 mph 1011.4mb 40f 44f
9:40am 3ft 5s 18 25 mph 1011.4mb 40f 44f
9:30am 3ft 5s 18 25 mph 1011.3mb 40f 44f
9:20am 3ft 4s 18 22 mph 1011.3mb 40f 44f
9:10am 2.5ft 4s 18 25 mph 1011.3mb 40f 44f
9:00am 2.5ft 5s 16 22 mph 1011.3mb 40f 44f
8:50am 2.5ft 5s 16 20 mph 1011.3mb 40f 44f
8:40am 2.5ft 4s 18 22 mph 1011.1mb 40f 45f
8:30am 2.5ft 5s 16 20 mph 1011.1mb 40f 44f
8:20am 2.5ft 4s 16 22 mph 1011.2mb 40f 44f
8:10am 2.5ft 4s 18 22 mph 1011.2mb 40f 45f
8:00am 2.5ft 4s 16 20 mph 1011.2mb 40f 45f
7:50am 2.5ft 4s 16 22 mph 1011.2mb 40f 45f
7:40am 2.5ft 4s 16 22 mph 1011.2mb 40f 45f
7:30am 2ft 4s 16 20 mph 1011.2mb 40f 44f
7:20am 2ft 4s 13 18 mph 1011.1mb 40f 44f
7:10am 1.6ft 4s 13 16 mph 1011.1mb 40f 44f
7:00am 1.6ft 4s 11 18 mph 1011.1mb 40f 44f
6:50am 1.6ft 4s 13 18 mph 1011.1mb 40f 44f
6:40am 1.6ft 4s 11 18 mph 1011.1mb 40f 44f
6:30am 1.6ft 4s 11 13 mph 1011.1mb 40f 44f
6:20am 1.6ft 4s 11 13 mph 1011.1mb 40f 44f
6:10am 1.6ft 4s 11 16 mph 1011mb 40f 44f
6:00am 1.6ft 4s 11 18 mph 1011.1mb 40f 44f
5:50am 1.6ft 4s 13 16 mph 1011mb 40f 45f
5:40am 1.3ft 4s 13 16 mph 1010.9mb 40f 45f
5:30am 1.6ft 4s 11 16 mph 1010.9mb 40f 45f
5:20am 1.3ft 4s 13 16 mph 1010.9mb 40f 45f
5:10am 1.3ft 4s 13 16 mph 1010.8mb 40f 45f
5:00am 1.3ft 4s 9 13 mph 1010.8mb 40f 45f
4:50am 1.3ft 4s 9 13 mph 1010.8mb 40f 45f
4:40am 1.3ft 4s 11 13 mph 1010.7mb 40f 45f
4:30am 1.6ft 4s 11 13 mph 1010.8mb 40f 45f
4:20am 1.6ft 4s 11 16 mph 1010.8mb 40f 45f
4:10am 1.6ft 4s 11 16 mph 1010.9mb 40f 45f
4:00am 1.6ft 4s 11 16 mph 1010.9mb 40f 45f
3:50am 1.6ft 4s 11 16 mph 1011mb 40f 45f